Aérodrome :
LOGIN :

S'inscrire | Disclaimer

   EN    FR    IT 

 










Légende :    VFR   VFR Marginal   IFR   IFR Intensif   IFR Très Intensif
Visi : 
Plafond : 
>= 8 km
>= 3000ft
5 à 8 km
1000 à 3000 ft
1500m à 5 km
500 à 1000 ft
800 à 1500m
200 à 500 ft
< 800m
< 200 ft
Symboles :   Orages  Brouillard  Fortes neiges  Fortes précipitations  Vent > 20 kt
SIGMETs :   Divers  Orages  Givrage  Turbulence  Onde Orograph.  Cendres Volcan.







- Altitude de l'aérodrome : 22 ft
- Code IATA : TUN


DTTA - Tunis Carthage

DERNIER METAR :
  • 281000Z 15012KT 110V180 9999 SCT026 40/14 Q1007 NOSIG

METARs EXPIRÉS :
  • 280930Z 13010KT 100V170 9999 SCT026 37/16 Q1007 NOSIG
  • 280900Z 14006KT 110V170 9999 SCT026 36/15 Q1007 NOSIG
  • 280830Z 15006KT 120V180 9999 SCT026 35/15 Q1008 NOSIG
  • 280800Z 17007KT 9999 SCT026 34/15 Q1008 NOSIG
  • 280730Z 16008KT 9999 SCT026 34/16 Q1008 NOSIG

TAF TAF DTTA
Valide du 28 à 06h jusqu'au 29 à 06h UTC


280540Z 2806/2906 16010KT 9999 FEW026
BECMG 2810/2812 34015KT
BECMG 2820/2822 31005KT
BECMG 2823/2901 VRB03KT
Pas de NOTAMs connus pour ce terrain.



MET'MAP, la Météo Aéronautique d'un coup d'oeil ! - Copyright ORBIFLY Décembre 2007 - Disclaimer

ORBIFLY MET'MAP TEAM :

Programmation & Développement : Alexandra Zaïnal
Conception & Développement : Baudouin d'Aumeries
Co-Programmation & Développement : Marc-Olivier Méhu
Soutien technique & logistique : Manuel Goepfert

Contact : metmap@orbifly.com




SOURCES & CREDITS :

   NOAA